Terminal Aerodrome Forecast
Issued by NWS

Home | Current Version | Previous Version | Text Only | Print | Product List | Glossary On
Versions: 1 2 3 4 5 6 7 8 9 10 11 12 13 14 15 16 17 18 19 20 21 22 23 24 25 26 27 28 29 30 31 32 33 34 35 36 37 38 39 40 41 42 43 44 45 46 47 48 49 50
000
FTUS43 KMKX 230011 AAB
TAFENW
TAF AMD
KENW 230011Z 2300/2324 09005KT 5SM BR BKN007 BKN022
     FM230100 VRB03KT 2SM BR BKN006
     FM230600 VRB03KT 1/2SM FG BKN003
     FM231400 08006KT 4SM BR BKN008
     FM231600 08006KT P6SM BKN020
     FM232000 09008KT P6SM SCT020 SCT250=

USA.gov is the U.S. government's official web portal to all federal, state and local government web resources and services.